Angler Guide Weather for North Bay -
North Bay, Ontario Current Weather Conditions
Enter your "Place, State", US Zip Code or ICAO:  
Forecast Information Radar Information
North Bay, Ontario, Canada  Lat: 46.35N, Lon: 79.4W
ICAO Used: CYSB
Current Conditions
Updated:
Sun & Moon Information:
Temp: N/A
Humidity: N/A
Wind Speed: N/A
Barometer: N/A
Dewpoint: N/A
Heat Index: N/A
Wind Chill: N/A
Civil Twilight: 7:18 AM EST
Moonrise: 6:05 AM EST Moon Phase:
Waning Crescent Moon
Waning Crescent Moon
Moonset: 3:54 PM EST
Sunrise: 7:53 AM EST
Sunset: 4:30 PM EST
Civil Twilight: 5:05 PM EST
Forecast for North Bay, ON:
(Forecast based on TAF for )
0239 PM EST MON NOV 06 2006
  
AFTERNOONEVENINGOVERNIGHT
PARTLY CLOUDYPARTLY CLOUDYMOSTLY CLOUDY
Partly
Cloudy
Partly
Cloudy
Mostly
Cloudy
TAF based forecast:
Dated: 0239 PM EST MON NOV 06 2006
Afternoon...Partly cloudy with winds from the south south east at 14 mph.
Evening...Partly cloudy with winds from the south south east at 14 mph. Then turning mostly cloudy with winds from the south south east at 12 mph.
Overnight...Turning mostly cloudy with winds from the south south east at 12 mph.
Original Encoded TAF:
Dated: 0239 PM EST MON NOV 06 2006
2006/11/06 19:39
CYSB 061939Z 062008 20012KT P6SM FEW020 FM0000Z 20010KT P6SM SCT010 BKN050=




Powered by Angler Guide.com
Copyright 2007, all rights reserved.